VDPP/PNH METAR and TAF weather

Enter ICAO airport designator
Station Type Date Time Source
VDPP METAR 2020/09/22 21:00 UTC NOAA

VDPP 222100Z VRB02KT 9000 SCT017 SCT040 25/23 Q1007


Station Type Date Time Source
VDPP Decoded METAR 2020/09/22 21:00 UTC NOAA

Phnom-Penh / Pochentong, Cambodia (VDPP) 11-33N 104-51E 10M
Sep 22, 2020 - 05:00 PM EDT / 2020.09.22 2100 UTC
Wind: Variable at 2 MPH (2 KT):0
Visibility: 5 mile(s):0
Sky conditions: partly cloudy
Temperature: 77 F (25 C)
Dew Point: 73 F (23 C)
Relative Humidity: 88%
Pressure (altimeter): 29.74 in. Hg (1007 hPa)
ob: VDPP 222100Z VRB02KT 9000 SCT017 SCT040 25/23 Q1007
cycle: 21

Station Type Date Time Source
VDPP TAF 2020/09/22 18:00 UTC NOAA

TAF VDPP 221700Z 2218/2306 14008KT 9999 SCT017
TEMPO 2218/2222 -TSRA SCT015 FEW017CB

Example: see airport list